Time;durP1;ratioP1;P1;durP2;ratioP2;P2;SDS_P1;SDS_P2;PMS_P1;PMS_P2;Temp;Humidity;BMP_temperature;BMP_pressure;BME280_temperature;BME280_humidity;BME280_pressure;Samples;Min_cycle;Max_cycle;Signal;HPM_P1;HPM_P2
2023/07/14 00:00:08;;;;;;;7.18;4.18;;;14.80;96.60;;;;;;4971378;28;20549;-76
2023/07/14 00:02:35;;;;;;;6.47;3.75;;;14.80;96.00;;;;;;4960465;28;20035;-77
2023/07/14 00:05:02;;;;;;;4.97;3.83;;;14.80;95.90;;;;;;4963185;28;20027;-76
2023/07/14 00:07:27;;;;;;;8.02;4.22;;;14.80;95.70;;;;;;4964187;28;20043;-77
2023/07/14 00:09:53;;;;;;;7.88;3.92;;;14.90;97.60;;;;;;4959198;28;20074;-76
2023/07/14 00:12:18;;;;;;;6.75;4.43;;;14.80;98.20;;;;;;4961259;28;20038;-77
2023/07/14 00:14:45;;;;;;;9.93;4.75;;;14.80;97.60;;;;;;4972304;28;20423;-76
2023/07/14 00:17:14;;;;;;;8.02;4.47;;;14.60;98.50;;;;;;4953265;28;20042;-75
2023/07/14 00:19:39;;;;;;;10.38;3.92;;;14.70;97.50;;;;;;4982627;28;20041;-75
2023/07/14 00:22:12;;;;;;;6.35;4.43;;;14.60;99.80;;;;;;4967685;28;20781;-76
2023/07/14 00:24:38;;;;;;;6.63;4.63;;;14.50;99.90;;;;;;4970706;28;20039;-76
2023/07/14 00:27:07;;;;;;;7.38;3.72;;;14.60;98.00;;;;;;4967665;28;20525;-76
2023/07/14 00:29:37;;;;;;;3.00;2.72;;;14.60;97.70;;;;;;4951948;28;20046;-77
2023/07/14 00:32:13;;;;;;;6.95;4.05;;;14.70;97.50;;;;;;4965915;28;20398;-76
2023/07/14 00:34:39;;;;;;;7.20;3.80;;;14.70;97.50;;;;;;4960906;28;20562;-76
2023/07/14 00:37:04;;;;;;;6.03;4.18;;;14.60;98.40;;;;;;4968826;28;20173;-76
2023/07/14 00:39:30;;;;;;;6.97;4.65;;;14.60;97.60;;;;;;4963849;28;20065;-77
2023/07/14 00:41:56;;;;;;;7.55;5.00;;;14.60;98.10;;;;;;4977872;28;20061;-76
2023/07/14 00:44:21;;;;;;;8.98;5.25;;;14.60;99.90;;;;;;4980001;28;20057;-76
2023/07/14 00:46:48;;;;;;;5.93;4.78;;;14.50;99.90;;;;;;4964180;28;20034;-77
2023/07/14 00:49:28;;;;;;;7.47;4.50;;;14.40;99.70;;;;;;4964119;28;20089;-76
2023/07/14 00:51:54;;;;;;;9.68;5.68;;;14.40;99.90;;;;;;4980143;28;20486;-76
2023/07/14 00:54:28;;;;;;;5.82;4.50;;;14.50;99.90;;;;;;4981577;28;20088;-76
2023/07/14 00:56:55;;;;;;;7.20;5.07;;;14.40;99.90;;;;;;4985362;28;20049;-76
2023/07/14 00:59:21;;;;;;;11.77;5.03;;;14.40;99.90;;;;;;4943260;28;20034;-76
2023/07/14 01:02:15;;;;;;;9.15;5.40;;;14.40;99.90;;;;;;4976565;28;20031;-76
2023/07/14 01:04:43;;;;;;;11.82;5.03;;;14.50;99.90;;;;;;4994995;28;20044;-75
2023/07/14 01:07:09;;;;;;;6.95;4.22;;;14.50;99.90;;;;;;4961771;28;20476;-75
2023/07/14 01:09:34;;;;;;;6.90;4.20;;;14.50;99.90;;;;;;4965381;28;20109;-75
2023/07/14 01:12:00;;;;;;;4.45;2.88;;;14.50;99.90;;;;;;4978113;28;20084;-75
2023/07/14 01:14:31;;;;;;;3.75;2.88;;;14.50;99.30;;;;;;4980152;28;20629;-76
2023/07/14 01:16:57;;;;;;;3.72;2.70;;;14.50;98.70;;;;;;4947334;28;20092;-75
2023/07/14 01:19:32;;;;;;;5.05;4.00;;;14.50;98.80;;;;;;4962796;28;20034;-76
2023/07/14 01:22:05;;;;;;;7.70;3.65;;;14.50;98.90;;;;;;4994403;28;20438;-77
2023/07/14 01:24:34;;;;;;;9.57;3.90;;;14.50;99.90;;;;;;4962780;28;21369;-78
2023/07/14 01:27:04;;;;;;;9.38;4.70;;;14.50;99.90;;;;;;4949726;28;20039;-77
2023/07/14 01:29:30;;;;;;;6.10;4.70;;;14.50;99.90;;;;;;4978926;28;20597;-77
2023/07/14 01:31:57;;;;;;;8.70;4.60;;;14.50;99.90;;;;;;4994821;28;20034;-77
2023/07/14 01:34:23;;;;;;;5.88;3.38;;;14.50;99.90;;;;;;4962225;28;20589;-77
2023/07/14 01:36:48;;;;;;;6.60;4.07;;;14.50;99.90;;;;;;4971518;28;20125;-77
2023/07/14 01:39:14;;;;;;;8.60;4.35;;;14.50;99.90;;;;;;4951407;28;20090;-76
2023/07/14 01:41:40;;;;;;;6.00;3.50;;;14.60;99.90;;;;;;4956174;28;20038;-77
2023/07/14 01:44:05;;;;;;;4.40;4.00;;;14.40;99.90;;;;;;4959121;28;20037;-77
2023/07/14 01:46:31;;;;;;;5.25;4.30;;;14.40;99.90;;;;;;4979216;28;20043;-77
2023/07/14 01:48:57;;;;;;;6.20;3.78;;;14.30;99.90;;;;;;4959266;28;20030;-77
2023/07/14 01:51:22;;;;;;;7.20;4.32;;;14.10;99.90;;;;;;4953497;28;20371;-77
2023/07/14 01:53:58;;;;;;;8.07;4.55;;;14.10;99.90;;;;;;4963609;28;20039;-77
2023/07/14 01:56:24;;;;;;;7.80;4.70;;;14.00;99.90;;;;;;4960332;28;20571;-77
2023/07/14 01:59:00;;;;;;;5.72;4.15;;;14.10;99.90;;;;;;4962304;28;20118;-76
2023/07/14 02:01:26;;;;;;;7.38;4.80;;;14.00;99.90;;;;;;4964268;28;20137;-77
2023/07/14 02:03:53;;;;;;;5.40;4.90;;;14.00;99.90;;;;;;4973946;28;20030;-76
2023/07/14 02:06:18;;;;;;;7.22;4.45;;;14.00;99.90;;;;;;4965650;28;20050;-76
2023/07/14 02:08:44;;;;;;;6.10;4.55;;;14.00;99.90;;;;;;4978783;28;20104;-77
2023/07/14 02:11:18;;;;;;;7.35;4.57;;;14.00;99.90;;;;;;4934794;28;20031;-76
2023/07/14 02:13:44;;;;;;;5.60;4.70;;;14.00;99.90;;;;;;4977784;28;20115;-76
2023/07/14 02:16:14;;;;;;;7.25;5.10;;;13.90;99.90;;;;;;4947167;28;20443;-77
2023/07/14 02:18:39;;;;;;;7.57;4.72;;;14.00;99.90;;;;;;4951224;28;20049;-76
2023/07/14 02:21:05;;;;;;;8.52;4.85;;;13.90;99.90;;;;;;4968930;28;20466;-76
2023/07/14 02:23:31;;;;;;;8.68;5.57;;;13.80;99.90;;;;;;4949551;28;20053;-76
2023/07/14 02:26:11;;;;;;;12.27;5.03;;;13.90;99.90;;;;;;4963231;28;20022;-76
2023/07/14 02:28:37;;;;;;;7.13;4.65;;;13.80;99.90;;;;;;4996942;28;20041;-76
2023/07/14 02:31:15;;;;;;;7.50;5.03;;;13.80;99.90;;;;;;4957980;28;20034;-77
2023/07/14 02:33:41;;;;;;;9.23;4.78;;;13.70;99.90;;;;;;4973505;28;20117;-77
2023/07/14 02:36:11;;;;;;;5.13;3.88;;;13.70;99.90;;;;;;4959538;28;20427;-77
2023/07/14 02:38:37;;;;;;;8.00;4.55;;;13.80;99.90;;;;;;4970991;28;20415;-76
2023/07/14 02:41:20;;;;;;;5.13;3.55;;;13.90;99.90;;;;;;4970177;28;20034;-76
2023/07/14 02:43:52;;;;;;;8.60;3.63;;;13.90;99.90;;;;;;4978922;28;20027;-77
2023/07/14 02:46:44;;;;;;;7.30;4.00;;;13.90;99.90;;;;;;4947158;28;20049;-77
2023/07/14 02:49:10;;;;;;;3.88;2.50;;;13.90;99.90;;;;;;4933571;28;20035;-77
2023/07/14 02:51:36;;;;;;;3.40;2.20;;;14.20;99.90;;;;;;4953322;28;20042;-76
2023/07/14 02:54:03;;;;;;;3.85;2.63;;;14.30;99.90;;;;;;4978262;28;20100;-80
2023/07/14 02:56:28;;;;;;;5.72;2.95;;;14.40;99.90;;;;;;4956571;28;20438;-81
2023/07/14 02:58:54;;;;;;;7.60;2.83;;;14.30;99.90;;;;;;4967699;28;20030;-80
2023/07/14 03:01:20;;;;;;;4.35;3.30;;;14.30;99.90;;;;;;4980079;28;20085;-80
2023/07/14 03:03:46;;;;;;;7.45;3.75;;;14.20;99.90;;;;;;4977754;28;20062;-82
2023/07/14 03:06:13;;;;;;;7.13;3.90;;;14.10;99.90;;;;;;4970105;28;20030;-81
2023/07/14 03:08:38;;;;;;;8.07;4.25;;;14.00;99.90;;;;;;4969093;28;20031;-81
2023/07/14 03:11:04;;;;;;;5.35;3.65;;;13.90;99.90;;;;;;4956448;28;20093;-81
2023/07/14 03:13:30;;;;;;;6.55;3.63;;;13.90;99.90;;;;;;4947639;28;20031;-80
2023/07/14 03:15:57;;;;;;;7.20;3.83;;;13.90;99.90;;;;;;4966817;28;20030;-81
2023/07/14 03:18:22;;;;;;;7.25;3.85;;;14.00;99.90;;;;;;4954488;28;20034;-80
2023/07/14 03:20:48;;;;;;;6.60;4.15;;;13.70;99.90;;;;;;4968237;28;20374;-81
2023/07/14 03:23:14;;;;;;;9.70;4.30;;;13.90;99.90;;;;;;4968050;28;20478;-81
2023/07/14 03:25:40;;;;;;;5.07;4.10;;;13.80;99.90;;;;;;4961294;28;20385;-81
2023/07/14 03:28:05;;;;;;;5.82;3.92;;;13.80;99.90;;;;;;4965253;28;20098;-81
2023/07/14 03:30:36;;;;;;;4.82;3.72;;;13.80;99.90;;;;;;4969171;28;20053;-81
2023/07/14 03:33:01;;;;;;;9.45;3.70;;;13.80;99.90;;;;;;4963490;28;20050;-81
2023/07/14 03:35:27;;;;;;;3.72;2.90;;;14.00;99.90;;;;;;4982042;28;20065;-80
2023/07/14 03:37:52;;;;;;;4.78;3.17;;;14.00;99.90;;;;;;4977198;28;20037;-80
2023/07/14 03:40:18;;;;;;;13.88;4.00;;;13.90;99.90;;;;;;4981033;28;20039;-81
2023/07/14 03:42:43;;;;;;;5.95;3.58;;;13.90;99.90;;;;;;4953433;28;20035;-81
2023/07/14 03:45:09;;;;;;;6.45;3.60;;;13.70;99.90;;;;;;4949258;28;20073;-81
2023/07/14 03:47:36;;;;;;;6.65;3.38;;;13.80;99.90;;;;;;4969698;28;20042;-79
2023/07/14 03:50:02;;;;;;;4.57;3.13;;;13.90;99.90;;;;;;4967986;28;20088;-81
2023/07/14 03:52:28;;;;;;;8.60;3.88;;;13.90;99.90;;;;;;4975279;28;20391;-81
2023/07/14 03:54:53;;;;;;;6.22;3.00;;;13.90;99.90;;;;;;4972802;28;20038;-82
2023/07/14 03:57:19;;;;;;;5.47;2.85;;;14.10;99.90;;;;;;4978234;28;20031;-81
2023/07/14 03:59:44;;;;;;;9.63;3.85;;;14.00;99.90;;;;;;4973216;28;20445;-81
2023/07/14 04:02:10;;;;;;;3.58;2.42;;;14.10;99.90;;;;;;4973263;28;20450;-82
2023/07/14 04:04:35;;;;;;;3.28;2.35;;;14.10;99.90;;;;;;4981024;28;20026;-81
2023/07/14 04:07:02;;;;;;;9.32;3.10;;;14.20;99.90;;;;;;4965508;28;20092;-81
2023/07/14 04:09:28;;;;;;;9.38;2.92;;;14.20;99.90;;;;;;4979650;28;20379;-81
2023/07/14 04:11:53;;;;;;;5.40;3.33;;;14.30;99.90;;;;;;4965885;28;20112;-82
2023/07/14 04:14:19;;;;;;;5.32;3.30;;;14.30;99.90;;;;;;4968804;28;20035;-82
2023/07/14 04:16:44;;;;;;;4.80;3.25;;;14.30;99.90;;;;;;4957695;28;20085;-81
2023/07/14 04:19:10;;;;;;;5.43;2.90;;;14.50;99.90;;;;;;4975947;28;20426;-81
2023/07/14 04:21:36;;;;;;;9.00;4.07;;;14.60;99.90;;;;;;4968634;28;20030;-81
2023/07/14 04:24:01;;;;;;;8.27;3.50;;;14.60;99.90;;;;;;4980996;28;20375;-81
2023/07/14 04:26:27;;;;;;;8.55;3.13;;;14.70;99.90;;;;;;4963237;28;20511;-81
2023/07/14 04:28:53;;;;;;;9.85;3.15;;;14.80;99.90;;;;;;4962571;28;20028;-80
2023/07/14 04:31:19;;;;;;;4.32;2.55;;;14.90;99.90;;;;;;4963378;28;20154;-81
2023/07/14 04:33:49;;;;;;;5.85;2.67;;;15.10;99.90;;;;;;4954031;28;20034;-80
2023/07/14 04:36:14;;;;;;;4.18;2.42;;;15.10;99.90;;;;;;4970319;28;20027;-80
2023/07/14 04:38:41;;;;;;;8.77;2.88;;;15.30;99.90;;;;;;4963029;28;20581;-80
2023/07/14 04:41:07;;;;;;;4.20;2.50;;;15.40;99.90;;;;;;4968027;28;20100;-80
2023/07/14 04:43:33;;;;;;;8.13;2.85;;;15.50;99.90;;;;;;4972460;28;20082;-80
2023/07/14 04:45:58;;;;;;;4.63;2.67;;;15.50;99.90;;;;;;4963593;28;20104;-80
2023/07/14 04:48:24;;;;;;;2.85;2.50;;;15.60;99.90;;;;;;4983677;28;20054;-80
2023/07/14 04:50:50;;;;;;;6.65;3.17;;;15.60;99.90;;;;;;4974186;28;20477;-80
2023/07/14 04:53:15;;;;;;;2.47;2.20;;;15.60;99.90;;;;;;4965767;28;20041;-80
2023/07/14 04:55:42;;;;;;;5.07;3.17;;;15.70;99.90;;;;;;4954330;28;20038;-80
2023/07/14 04:58:09;;;;;;;7.88;3.20;;;15.70;99.90;;;;;;4961925;28;20376;-80
2023/07/14 05:00:36;;;;;;;8.57;3.40;;;15.80;99.90;;;;;;4953678;28;20034;-81
2023/07/14 05:03:01;;;;;;;5.72;3.30;;;15.80;99.90;;;;;;4947292;28;20190;-81
2023/07/14 05:05:27;;;;;;;5.00;2.80;;;15.90;99.90;;;;;;4962541;28;20524;-81
2023/07/14 05:07:53;;;;;;;4.75;2.72;;;15.90;99.90;;;;;;4977359;28;20034;-81
2023/07/14 05:10:19;;;;;;;9.02;3.20;;;16.00;99.90;;;;;;4982716;28;20532;-80
2023/07/14 05:12:45;;;;;;;6.45;3.40;;;16.00;99.90;;;;;;4949604;28;20035;-79
2023/07/14 05:15:11;;;;;;;4.72;3.40;;;16.10;99.90;;;;;;4968735;28;20041;-80
2023/07/14 05:17:37;;;;;;;10.15;3.40;;;16.20;99.90;;;;;;4963568;28;20030;-80
2023/07/14 05:20:06;;;;;;;5.85;3.70;;;16.20;99.90;;;;;;4963573;28;20476;-82
2023/07/14 05:22:31;;;;;;;6.93;3.13;;;16.30;99.90;;;;;;4969595;28;20056;-80
2023/07/14 05:24:57;;;;;;;7.10;3.30;;;16.30;99.90;;;;;;4955719;28;20031;-81
2023/07/14 05:27:23;;;;;;;4.80;2.95;;;16.40;99.90;;;;;;4957428;28;20045;-79
2023/07/14 05:29:49;;;;;;;9.00;3.30;;;16.50;99.90;;;;;;4946635;28;20109;-79
2023/07/14 05:32:16;;;;;;;5.53;2.40;;;16.50;99.90;;;;;;4966813;28;20038;-81
2023/07/14 05:34:42;;;;;;;8.23;3.90;;;16.60;99.90;;;;;;4950639;28;20446;-78
2023/07/14 05:37:07;;;;;;;4.28;2.60;;;16.70;99.90;;;;;;4951629;28;20034;-78
2023/07/14 05:39:33;;;;;;;3.53;2.08;;;16.80;99.90;;;;;;4984644;28;20034;-78
2023/07/14 05:41:59;;;;;;;3.28;2.22;;;16.80;99.90;;;;;;4962137;28;20041;-79
2023/07/14 05:44:24;;;;;;;5.35;3.00;;;16.90;99.90;;;;;;4970914;28;20049;-78
2023/07/14 05:46:50;;;;;;;3.80;2.53;;;16.90;99.90;;;;;;4965834;28;20093;-79
2023/07/14 05:49:16;;;;;;;6.50;2.60;;;17.00;99.90;;;;;;4969423;28;20129;-79
2023/07/14 05:51:42;;;;;;;6.93;2.90;;;17.00;99.90;;;;;;4960451;28;20037;-79
2023/07/14 05:54:08;;;;;;;8.05;2.72;;;17.10;99.90;;;;;;4968088;28;20042;-79
2023/07/14 05:56:34;;;;;;;6.20;2.80;;;17.20;99.90;;;;;;4981394;28;20034;-78
2023/07/14 05:58:59;;;;;;;6.07;2.75;;;17.30;99.90;;;;;;4974800;28;20154;-79
2023/07/14 06:01:25;;;;;;;3.53;2.45;;;17.30;99.90;;;;;;4976973;28;20503;-78
2023/07/14 06:03:51;;;;;;;7.22;2.92;;;17.40;99.90;;;;;;4990760;28;20045;-78
2023/07/14 06:06:16;;;;;;;4.40;2.45;;;17.60;99.90;;;;;;4971776;28;20382;-79
2023/07/14 06:08:42;;;;;;;6.82;2.65;;;17.80;99.90;;;;;;4983348;28;20029;-78
2023/07/14 06:11:08;;;;;;;5.38;2.97;;;17.70;99.90;;;;;;4983650;28;20035;-78
2023/07/14 06:13:33;;;;;;;7.25;2.20;;;17.90;99.90;;;;;;4978732;28;20037;-78
2023/07/14 06:15:59;;;;;;;3.40;2.20;;;18.00;99.90;;;;;;4981183;28;20404;-78
2023/07/14 06:18:25;;;;;;;3.65;2.15;;;18.30;99.90;;;;;;4959852;28;20034;-78
2023/07/14 06:20:51;;;;;;;3.13;2.22;;;18.50;99.90;;;;;;4993774;28;20053;-78
2023/07/14 06:23:16;;;;;;;6.55;2.75;;;18.70;99.90;;;;;;4948108;28;20109;-77
2023/07/14 06:25:42;;;;;;;7.18;2.63;;;18.70;99.90;;;;;;4935686;28;20023;-78
2023/07/14 06:28:08;;;;;;;4.57;2.58;;;19.00;99.90;;;;;;4964333;28;20033;-78
2023/07/14 06:30:34;;;;;;;4.55;2.00;;;19.20;99.90;;;;;;4977903;28;20042;-78
2023/07/14 06:33:01;;;;;;;4.20;2.10;;;19.50;99.90;;;;;;4953319;28;20612;-79
2023/07/14 06:35:26;;;;;;;3.45;2.10;;;19.60;99.90;;;;;;4980246;28;20487;-79
2023/07/14 06:37:52;;;;;;;4.40;2.60;;;20.00;99.90;;;;;;4979186;28;20498;-81
2023/07/14 06:40:18;;;;;;;3.05;1.80;;;20.40;99.90;;;;;;4960702;28;20035;-80
2023/07/14 06:42:44;;;;;;;6.20;2.25;;;20.50;99.60;;;;;;4930983;28;20031;-80
2023/07/14 06:45:09;;;;;;;4.32;2.08;;;20.50;99.90;;;;;;4959345;28;20035;-78
2023/07/14 06:47:35;;;;;;;5.03;2.15;;;20.70;99.90;;;;;;4952398;28;20035;-79
2023/07/14 06:50:00;;;;;;;6.70;2.17;;;21.30;99.90;;;;;;4968265;28;20089;-78
2023/07/14 06:52:26;;;;;;;4.47;1.95;;;21.70;99.90;;;;;;4984035;28;20126;-79
2023/07/14 06:54:52;;;;;;;7.43;2.60;;;22.00;99.90;;;;;;4980942;28;20034;-78
2023/07/14 06:57:18;;;;;;;5.60;2.20;;;22.00;98.50;;;;;;4966567;28;20040;-77
2023/07/14 06:59:44;;;;;;;4.80;2.15;;;22.20;99.20;;;;;;4953136;28;20405;-78
2023/07/14 07:02:11;;;;;;;3.38;1.92;;;22.40;99.90;;;;;;4953282;28;20450;-79
2023/07/14 07:04:37;;;;;;;5.68;2.05;;;22.60;97.70;;;;;;4963838;28;20104;-78
2023/07/14 07:07:04;;;;;;;3.45;1.90;;;22.60;95.70;;;;;;4955838;28;20332;-78
2023/07/14 07:09:29;;;;;;;4.07;2.30;;;22.80;97.50;;;;;;4949504;28;20554;-78
2023/07/14 07:11:55;;;;;;;4.07;2.38;;;23.10;95.70;;;;;;4981572;28;20106;-78
2023/07/14 07:14:21;;;;;;;3.08;1.85;;;23.10;94.20;;;;;;4958386;28;20040;-78
2023/07/14 07:16:47;;;;;;;7.03;2.50;;;23.30;95.80;;;;;;4967687;28;20414;-78
2023/07/14 07:19:12;;;;;;;4.47;1.90;;;23.20;93.40;;;;;;4956886;28;20455;-78
2023/07/14 07:21:39;;;;;;;4.68;1.60;;;23.60;94.80;;;;;;4967043;28;20380;-78
2023/07/14 07:24:05;;;;;;;3.08;1.90;;;23.80;97.70;;;;;;4973327;28;20030;-77
2023/07/14 07:26:30;;;;;;;4.50;1.50;;;24.70;98.50;;;;;;4960172;28;20041;-77
2023/07/14 07:28:56;;;;;;;3.85;2.47;;;24.90;96.50;;;;;;4964948;28;20031;-77
2023/07/14 07:31:22;;;;;;;5.13;2.33;;;24.80;95.30;;;;;;4961407;28;20023;-78
2023/07/14 07:33:47;;;;;;;5.40;2.00;;;24.60;90.50;;;;;;4967822;28;20026;-77
2023/07/14 07:36:16;;;;;;;4.53;1.70;;;24.60;90.60;;;;;;4968716;28;20576;-78
2023/07/14 07:38:45;;;;;;;3.17;1.58;;;24.80;93.70;;;;;;4966207;28;20030;-77
2023/07/14 07:41:11;;;;;;;2.55;1.60;;;25.30;93.10;;;;;;4962870;28;20164;-77
2023/07/14 07:43:38;;;;;;;3.85;1.42;;;25.00;87.90;;;;;;4961086;28;20390;-77
2023/07/14 07:46:03;;;;;;;2.83;1.70;;;25.10;90.60;;;;;;4950480;28;20355;-77
2023/07/14 07:48:29;;;;;;;3.70;1.60;;;25.30;91.40;;;;;;4947837;28;20038;-77
2023/07/14 07:50:55;;;;;;;5.65;1.70;;;25.70;90.70;;;;;;4954030;28;20114;-78
2023/07/14 07:53:20;;;;;;;3.88;2.75;;;25.80;91.10;;;;;;4967892;28;20034;-77
2023/07/14 07:55:53;;;;;;;2.95;1.40;;;25.90;87.20;;;;;;4945922;28;20474;-77
2023/07/14 07:58:19;;;;;;;3.45;1.30;;;25.70;87.80;;;;;;4982081;28;20053;-77
2023/07/14 08:00:45;;;;;;;2.88;1.40;;;26.10;91.90;;;;;;4962427;28;20030;-76
2023/07/14 08:03:10;;;;;;;2.58;1.48;;;26.20;87.30;;;;;;4963884;28;20035;-77
2023/07/14 08:05:38;;;;;;;2.75;1.30;;;26.10;84.30;;;;;;4952133;28;20030;-76
2023/07/14 08:08:04;;;;;;;6.10;1.50;;;26.50;87.70;;;;;;4953467;28;20054;-77
2023/07/14 08:10:29;;;;;;;2.70;1.50;;;26.70;88.30;;;;;;4955105;28;20031;-77
2023/07/14 08:12:55;;;;;;;3.58;1.35;;;26.70;81.40;;;;;;4973833;28;20040;-77
2023/07/14 08:15:20;;;;;;;5.70;1.65;;;26.60;79.60;;;;;;4949802;28;20101;-76
2023/07/14 08:17:53;;;;;;;3.72;1.60;;;26.50;78.30;;;;;;4964553;28;20038;-76
2023/07/14 08:20:19;;;;;;;2.17;1.35;;;26.30;78.40;;;;;;4976923;28;20061;-76
2023/07/14 08:22:45;;;;;;;4.20;1.40;;;26.60;83.10;;;;;;4945116;28;20061;-76
2023/07/14 08:25:11;;;;;;;4.18;1.40;;;26.70;75.70;;;;;;4960014;28;20038;-76
2023/07/14 08:27:37;;;;;;;4.80;1.73;;;26.30;74.30;;;;;;4957267;28;20035;-76
2023/07/14 08:30:05;;;;;;;2.90;1.80;;;26.80;82.40;;;;;;4957479;28;20564;-76
2023/07/14 08:32:34;;;;;;;2.83;1.33;;;27.30;75.40;;;;;;4962228;28;20034;-76
2023/07/14 08:34:59;;;;;;;4.60;2.03;;;27.00;76.90;;;;;;4966972;28;20058;-76
2023/07/14 08:37:25;;;;;;;2.83;1.65;;;27.30;74.30;;;;;;4945172;28;20482;-77
2023/07/14 08:39:50;;;;;;;4.95;1.60;;;26.80;72.00;;;;;;4957585;28;20130;-77
2023/07/14 08:42:34;;;;;;;2.58;1.45;;;27.00;72.20;;;;;;4962085;28;20116;-77
2023/07/14 08:45:16;;;;;;;5.78;1.83;;;27.40;75.80;;;;;;4977518;28;20109;-77
2023/07/14 08:48:13;;;;;;;4.22;1.65;;;27.80;76.70;;;;;;4950290;28;20050;-77
2023/07/14 08:50:39;;;;;;;5.57;2.00;;;27.80;75.50;;;;;;4966166;28;20145;-76
2023/07/14 08:53:05;;;;;;;6.43;1.70;;;27.30;68.80;;;;;;4996127;28;20122;-77
2023/07/14 08:55:35;;;;;;;3.53;1.45;;;27.30;73.90;;;;;;4976728;28;20129;-77
2023/07/14 08:58:10;;;;;;;3.55;1.65;;;27.90;69.10;;;;;;4956721;28;20094;-76
2023/07/14 09:00:54;;;;;;;2.33;1.40;;;27.70;68.30;;;;;;4976171;28;20037;-77
2023/07/14 09:03:43;;;;;;;3.80;1.50;;;28.30;68.50;;;;;;4962658;28;20053;-77
2023/07/14 09:06:30;;;;;;;5.05;1.67;;;27.90;65.40;;;;;;4964236;28;20052;-77
2023/07/14 09:08:56;;;;;;;2.58;1.30;;;28.10;64.00;;;;;;4958781;28;20505;-77
2023/07/14 09:11:35;;;;;;;3.78;1.70;;;27.80;63.40;;;;;;4966139;28;20035;-77
2023/07/14 09:14:31;;;;;;;5.00;1.63;;;28.40;63.30;;;;;;4963150;28;20045;-78
2023/07/14 09:17:12;;;;;;;;;;;29.40;62.40;;;;;;4977171;28;20053;-78
2023/07/14 09:19:56;;;;;;;2.97;1.30;;;29.40;61.50;;;;;;4976650;28;20021;-78
2023/07/14 09:22:44;;;;;;;2.95;1.77;;;30.10;64.20;;;;;;4968769;28;20027;-79
2023/07/14 09:25:37;;;;;;;2.38;1.50;;;30.00;60.40;;;;;;4962706;28;20058;-78
2023/07/14 09:28:03;;;;;;;3.13;1.60;;;30.00;58.40;;;;;;4934307;28;20044;-80
2023/07/14 09:30:29;;;;;;;2.08;1.42;;;29.90;62.10;;;;;;4963495;28;20034;-79
2023/07/14 09:33:00;;;;;;;7.05;1.88;;;30.80;60.50;;;;;;4960758;28;20474;-79
2023/07/14 09:35:28;;;;;;;6.13;1.70;;;31.30;63.60;;;;;;4931013;28;20045;-80
2023/07/14 09:38:07;;;;;;;3.42;1.63;;;31.40;58.90;;;;;;4953358;28;20063;-79
2023/07/14 09:40:34;;;;;;;2.47;1.65;;;31.40;59.60;;;;;;4965362;28;20053;-80
2023/07/14 09:43:01;;;;;;;7.22;1.80;;;31.60;62.10;;;;;;4965927;28;20034;-79
2023/07/14 09:45:30;;;;;;;2.95;1.90;;;32.20;57.60;;;;;;4956969;28;20479;-79
2023/07/14 09:48:10;;;;;;;2.85;1.70;;;31.90;58.10;;;;;;4953612;28;20518;-80
2023/07/14 09:50:37;;;;;;;2.17;1.40;;;32.40;62.40;;;;;;4941411;28;20031;-82
2023/07/14 09:53:05;;;;;;;7.35;2.40;;;32.30;56.30;;;;;;4955184;28;20062;-82
2023/07/14 09:55:52;;;;;;;6.63;1.70;;;32.50;60.10;;;;;;4960057;28;20236;-82
2023/07/14 09:58:20;;;;;;;3.17;1.75;;;33.10;59.00;;;;;;4946706;28;20030;-82
2023/07/14 10:00:47;;;;;;;5.93;2.15;;;33.00;58.10;;;;;;4969735;28;20541;-82
2023/07/14 10:03:16;;;;;;;6.78;2.40;;;32.60;57.60;;;;;;4956937;28;20506;-82
2023/07/14 10:05:57;;;;;;;3.22;1.80;;;33.10;59.70;;;;;;4958057;28;20030;-82
2023/07/14 10:08:33;;;;;;;2.60;1.50;;;32.70;54.20;;;;;;4944756;28;20145;-83
2023/07/14 10:11:16;;;;;;;4.85;1.92;;;33.20;58.10;;;;;;4961384;28;20560;-82
2023/07/14 10:13:54;;;;;;;4.00;1.65;;;33.20;56.90;;;;;;4962747;28;20038;-82
2023/07/14 10:16:20;;;;;;;3.08;1.67;;;33.90;56.40;;;;;;4964273;28;20080;-83
2023/07/14 10:18:49;;;;;;;2.85;1.67;;;34.10;54.20;;;;;;4946541;28;20502;-82
2023/07/14 10:21:17;;;;;;;4.47;1.88;;;34.20;53.70;;;;;;4978030;28;20046;-82
2023/07/14 10:23:57;;;;;;;2.13;1.90;;;34.20;54.20;;;;;;4958198;28;20026;-84
2023/07/14 10:26:24;;;;;;;3.08;1.70;;;33.60;56.00;;;;;;4971363;28;20049;-83
2023/07/14 10:28:50;;;;;;;3.88;2.08;;;33.20;50.90;;;;;;4960711;28;20037;-84
2023/07/14 10:31:25;;;;;;;4.10;2.22;;;33.40;55.30;;;;;;4957405;28;20105;-83
2023/07/14 10:33:54;;;;;;;3.22;1.70;;;33.50;52.10;;;;;;4953339;28;20027;-83
2023/07/14 10:36:22;;;;;;;4.80;2.17;;;33.70;50.80;;;;;;4980300;28;20037;-83
2023/07/14 10:38:54;;;;;;;4.80;2.03;;;33.60;51.60;;;;;;4959031;28;20042;-82
2023/07/14 10:41:20;;;;;;;8.15;2.22;;;33.10;49.80;;;;;;4963557;28;20108;-83
2023/07/14 10:43:49;;;;;;;2.58;2.00;;;34.20;52.50;;;;;;4969279;28;20557;-82
2023/07/14 10:46:21;;;;;;;4.25;2.08;;;34.00;52.80;;;;;;4958795;28;20041;-83
2023/07/14 10:48:53;;;;;;;2.15;1.90;;;34.40;50.90;;;;;;4947205;28;20054;-81
2023/07/14 10:51:36;;;;;;;2.47;1.77;;;33.00;49.80;;;;;;4961547;28;20061;-83
2023/07/14 10:54:07;;;;;;;3.90;2.13;;;32.50;49.80;;;;;;4960529;28;20038;-82
2023/07/14 10:56:45;;;;;;;4.32;2.20;;;33.10;51.00;;;;;;4963081;28;20482;-83
2023/07/14 10:59:16;;;;;;;2.33;1.88;;;34.30;51.90;;;;;;4931472;28;20488;-84
2023/07/14 11:01:53;;;;;;;3.40;1.92;;;34.50;49.30;;;;;;4991711;28;20042;-83
2023/07/14 11:04:24;;;;;;;4.78;2.17;;;34.60;51.00;;;;;;4948660;28;20027;-83
2023/07/14 11:06:51;;;;;;;2.75;1.77;;;34.90;50.60;;;;;;4979942;28;20105;-83
2023/07/14 11:09:16;;;;;;;10.80;2.90;;;35.60;50.00;;;;;;4965571;28;20383;-82
2023/07/14 11:12:05;;;;;;;5.03;1.80;;;35.70;49.90;;;;;;4946537;28;20039;-83
2023/07/14 11:14:53;;;;;;;3.72;2.05;;;35.30;50.30;;;;;;4957102;28;20486;-83
2023/07/14 11:17:37;;;;;;;4.55;3.17;;;34.20;47.80;;;;;;4989347;28;20688;-83
2023/07/14 11:20:18;;;;;;;3.75;2.08;;;34.00;47.70;;;;;;4987714;28;20490;-82
2023/07/14 11:23:10;;;;;;;3.72;1.92;;;34.50;50.10;;;;;;4977974;28;20084;-82
2023/07/14 11:25:57;;;;;;;2.92;2.05;;;34.60;47.60;;;;;;4962805;28;20027;-82
2023/07/14 11:28:44;;;;;;;5.43;2.10;;;34.90;50.80;;;;;;4973141;28;20603;-82
2023/07/14 11:31:29;;;;;;;3.55;1.83;;;35.40;48.90;;;;;;4991425;28;20034;-82
2023/07/14 11:34:16;;;;;;;4.20;1.80;;;34.80;47.40;;;;;;4965218;28;20092;-83
2023/07/14 11:36:57;;;;;;;3.90;2.20;;;35.00;47.20;;;;;;4960443;28;20077;-82
2023/07/14 11:39:46;;;;;;;3.92;1.98;;;35.80;46.80;;;;;;4979795;28;20030;-83
2023/07/14 11:42:32;;;;;;;2.72;1.95;;;35.90;48.30;;;;;;4976757;28;20034;-82
2023/07/14 11:45:00;;;;;;;4.75;2.20;;;35.90;46.30;;;;;;4947098;28;20056;-83
2023/07/14 11:47:39;;;;;;;4.97;2.55;;;35.90;46.50;;;;;;4960936;28;20121;-83
2023/07/14 11:50:16;;;;;;;2.75;1.85;;;36.30;48.50;;;;;;4963464;28;20054;-83
2023/07/14 11:52:57;;;;;;;3.55;1.70;;;36.10;45.40;;;;;;4954588;28;20093;-82
2023/07/14 11:55:24;;;;;;;2.70;2.22;;;36.10;46.90;;;;;;4964294;28;20050;-82
2023/07/14 11:58:04;;;;;;;3.38;1.67;;;36.40;47.10;;;;;;4954406;28;20367;-82
2023/07/14 12:00:35;;;;;;;4.30;2.03;;;36.00;47.00;;;;;;4962188;28;20109;-82
2023/07/14 12:03:02;;;;;;;5.47;2.25;;;36.10;44.50;;;;;;4958818;28;20547;-82
2023/07/14 12:05:30;;;;;;;6.57;2.30;;;35.50;46.00;;;;;;4978641;28;20514;-82
2023/07/14 12:08:04;;;;;;;4.30;2.30;;;35.50;45.00;;;;;;4965649;28;20038;-81
2023/07/14 12:10:50;;;;;;;3.40;2.07;;;35.50;46.40;;;;;;4960612;28;20030;-82
2023/07/14 12:13:16;;;;;;;3.00;1.80;;;36.70;46.80;;;;;;4963421;28;20282;-82
2023/07/14 12:15:56;;;;;;;5.05;2.30;;;37.20;46.70;;;;;;4976038;28;20030;-84
2023/07/14 12:18:22;;;;;;;4.55;2.20;;;37.40;44.50;;;;;;4978867;28;20026;-83
2023/07/14 12:20:48;;;;;;;3.25;2.10;;;37.50;44.80;;;;;;4967919;28;20489;-83
2023/07/14 12:23:17;;;;;;;6.30;2.50;;;38.10;44.60;;;;;;4947903;28;20062;-84
2023/07/14 12:25:48;;;;;;;4.88;2.00;;;38.70;42.90;;;;;;4981942;28;20036;-84
2023/07/14 12:28:23;;;;;;;3.42;1.85;;;37.50;42.90;;;;;;4982520;28;20548;-82
2023/07/14 12:30:51;;;;;;;6.78;2.45;;;37.50;43.30;;;;;;4943636;28;20035;-83
2023/07/14 12:33:19;;;;;;;4.00;1.63;;;37.80;44.60;;;;;;4965028;28;20046;-83
2023/07/14 12:35:45;;;;;;;2.50;1.90;;;37.80;44.60;;;;;;4957466;28;20058;-83
2023/07/14 12:38:16;;;;;;;6.07;2.25;;;38.10;42.90;;;;;;4956005;28;20058;-83
2023/07/14 12:40:42;;;;;;;5.03;2.28;;;38.10;43.20;;;;;;4964151;28;20035;-83
2023/07/14 12:43:11;;;;;;;3.22;1.70;;;38.40;42.30;;;;;;4982901;28;20402;-82
2023/07/14 12:45:36;;;;;;;3.22;2.10;;;38.30;43.10;;;;;;4966052;28;20027;-82
2023/07/14 12:48:02;;;;;;;5.35;1.92;;;38.30;43.10;;;;;;4967065;28;20452;-83
2023/07/14 12:50:29;;;;;;;3.60;1.95;;;38.40;43.60;;;;;;4957733;28;20050;-82
2023/07/14 12:52:54;;;;;;;3.72;2.00;;;38.10;44.20;;;;;;4956944;28;20031;-82
2023/07/14 12:55:23;;;;;;;3.08;2.15;;;38.20;43.50;;;;;;4956772;28;20041;-83
2023/07/14 12:57:49;;;;;;;2.65;1.75;;;37.60;43.10;;;;;;4961753;28;20027;-83